sensor_id;sensor_type;location;lat;lon;timestamp;P1;durP1;ratioP1;P2;durP2;ratioP2
1682;SDS011;13252;53.596;10.060;2023-01-10T00:00:39;30.00;;;13.90;;
1682;SDS011;13252;53.596;10.060;2023-01-10T00:03:07;32.60;;;14.47;;
1682;SDS011;13252;53.596;10.060;2023-01-10T00:05:35;28.37;;;14.70;;
1682;SDS011;13252;53.596;10.060;2023-01-10T00:08:05;26.80;;;14.77;;
1682;SDS011;13252;53.596;10.060;2023-01-10T00:10:34;26.17;;;15.10;;
1682;SDS011;13252;53.596;10.060;2023-01-10T00:13:02;22.10;;;13.13;;
1682;SDS011;13252;53.596;10.060;2023-01-10T00:15:47;20.13;;;11.87;;
1682;SDS011;13252;53.596;10.060;2023-01-10T00:18:14;26.77;;;11.67;;
1682;SDS011;13252;53.596;10.060;2023-01-10T00:20:42;21.80;;;13.13;;
1682;SDS011;13252;53.596;10.060;2023-01-10T00:23:12;26.33;;;12.77;;
1682;SDS011;13252;53.596;10.060;2023-01-10T00:25:40;23.53;;;11.60;;
1682;SDS011;13252;53.596;10.060;2023-01-10T00:28:07;32.77;;;11.20;;
1682;SDS011;13252;53.596;10.060;2023-01-10T00:30:48;19.43;;;11.00;;
1682;SDS011;13252;53.596;10.060;2023-01-10T00:33:24;21.77;;;10.67;;
1682;SDS011;13252;53.596;10.060;2023-01-10T00:35:51;29.47;;;11.20;;
1682;SDS011;13252;53.596;10.060;2023-01-10T00:38:20;25.73;;;10.90;;
1682;SDS011;13252;53.596;10.060;2023-01-10T00:40:48;15.73;;;9.73;;
1682;SDS011;13252;53.596;10.060;2023-01-10T00:43:15;44.27;;;12.00;;
1682;SDS011;13252;53.596;10.060;2023-01-10T00:46:00;23.70;;;12.17;;
1682;SDS011;13252;53.596;10.060;2023-01-10T00:48:28;23.00;;;9.73;;
1682;SDS011;13252;53.596;10.060;2023-01-10T00:50:56;23.13;;;11.27;;
1682;SDS011;13252;53.596;10.060;2023-01-10T00:53:25;24.57;;;8.93;;
1682;SDS011;13252;53.596;10.060;2023-01-10T00:55:52;18.43;;;10.20;;
1682;SDS011;13252;53.596;10.060;2023-01-10T00:58:20;15.03;;;8.67;;
1682;SDS011;13252;53.596;10.060;2023-01-10T01:00:48;23.33;;;9.57;;
1682;SDS011;13252;53.596;10.060;2023-01-10T01:03:17;19.70;;;9.30;;
1682;SDS011;13252;53.596;10.060;2023-01-10T01:05:46;19.87;;;9.73;;
1682;SDS011;13252;53.596;10.060;2023-01-10T01:08:14;24.93;;;10.00;;
1682;SDS011;13252;53.596;10.060;2023-01-10T01:10:43;17.37;;;8.40;;
1682;SDS011;13252;53.596;10.060;2023-01-10T01:13:12;26.70;;;8.90;;
1682;SDS011;13252;53.596;10.060;2023-01-10T01:15:41;17.53;;;9.80;;
1682;SDS011;13252;53.596;10.060;2023-01-10T01:18:08;21.10;;;7.43;;
1682;SDS011;13252;53.596;10.060;2023-01-10T01:20:37;20.30;;;8.17;;
1682;SDS011;13252;53.596;10.060;2023-01-10T01:23:05;22.77;;;8.30;;
1682;SDS011;13252;53.596;10.060;2023-01-10T01:25:32;25.33;;;10.60;;
1682;SDS011;13252;53.596;10.060;2023-01-10T01:28:01;19.23;;;8.57;;
1682;SDS011;13252;53.596;10.060;2023-01-10T01:30:29;17.90;;;8.77;;
1682;SDS011;13252;53.596;10.060;2023-01-10T01:32:57;15.73;;;8.13;;
1682;SDS011;13252;53.596;10.060;2023-01-10T01:35:24;19.03;;;8.00;;
1682;SDS011;13252;53.596;10.060;2023-01-10T01:37:52;29.93;;;10.93;;
1682;SDS011;13252;53.596;10.060;2023-01-10T01:40:21;23.50;;;8.20;;
1682;SDS011;13252;53.596;10.060;2023-01-10T01:42:49;18.43;;;7.97;;
1682;SDS011;13252;53.596;10.060;2023-01-10T01:48:21;32.73;;;7.70;;
1682;SDS011;13252;53.596;10.060;2023-01-10T01:50:53;18.20;;;7.93;;
1682;SDS011;13252;53.596;10.060;2023-01-10T01:53:25;23.07;;;8.80;;
1682;SDS011;13252;53.596;10.060;2023-01-10T01:55:56;20.20;;;8.60;;
1682;SDS011;13252;53.596;10.060;2023-01-10T01:58:29;20.60;;;8.20;;
1682;SDS011;13252;53.596;10.060;2023-01-10T02:01:01;18.80;;;8.73;;
1682;SDS011;13252;53.596;10.060;2023-01-10T02:03:29;21.77;;;9.77;;
1682;SDS011;13252;53.596;10.060;2023-01-10T02:05:56;22.33;;;9.27;;
1682;SDS011;13252;53.596;10.060;2023-01-10T02:08:24;12.80;;;7.33;;
1682;SDS011;13252;53.596;10.060;2023-01-10T02:10:52;16.30;;;8.30;;
1682;SDS011;13252;53.596;10.060;2023-01-10T02:13:23;16.00;;;8.60;;
1682;SDS011;13252;53.596;10.060;2023-01-10T02:15:52;18.63;;;7.93;;
1682;SDS011;13252;53.596;10.060;2023-01-10T02:18:21;19.83;;;8.40;;
1682;SDS011;13252;53.596;10.060;2023-01-10T02:21:03;28.60;;;10.00;;
1682;SDS011;13252;53.596;10.060;2023-01-10T02:23:59;23.57;;;8.53;;
1682;SDS011;13252;53.596;10.060;2023-01-10T02:26:57;15.67;;;8.07;;
1682;SDS011;13252;53.596;10.060;2023-01-10T02:29:49;20.47;;;8.80;;
1682;SDS011;13252;53.596;10.060;2023-01-10T02:32:32;20.57;;;8.47;;
1682;SDS011;13252;53.596;10.060;2023-01-10T02:35:22;12.90;;;7.00;;
1682;SDS011;13252;53.596;10.060;2023-01-10T02:37:59;25.33;;;8.60;;
1682;SDS011;13252;53.596;10.060;2023-01-10T02:40:33;14.23;;;7.10;;
1682;SDS011;13252;53.596;10.060;2023-01-10T02:43:10;17.77;;;7.70;;
1682;SDS011;13252;53.596;10.060;2023-01-10T02:45:41;21.13;;;8.70;;
1682;SDS011;13252;53.596;10.060;2023-01-10T02:48:14;22.13;;;8.37;;
1682;SDS011;13252;53.596;10.060;2023-01-10T02:50:44;24.17;;;8.93;;
1682;SDS011;13252;53.596;10.060;2023-01-10T02:53:18;21.47;;;9.03;;
1682;SDS011;13252;53.596;10.060;2023-01-10T02:55:57;18.90;;;9.23;;
1682;SDS011;13252;53.596;10.060;2023-01-10T02:58:32;25.70;;;8.60;;
1682;SDS011;13252;53.596;10.060;2023-01-10T03:01:09;28.30;;;8.53;;
1682;SDS011;13252;53.596;10.060;2023-01-10T03:03:44;18.10;;;7.43;;
1682;SDS011;13252;53.596;10.060;2023-01-10T03:06:18;19.83;;;8.20;;
1682;SDS011;13252;53.596;10.060;2023-01-10T03:08:50;26.53;;;9.00;;
1682;SDS011;13252;53.596;10.060;2023-01-10T03:11:20;15.13;;;7.90;;
1682;SDS011;13252;53.596;10.060;2023-01-10T03:14:07;19.77;;;8.70;;
1682;SDS011;13252;53.596;10.060;2023-01-10T03:16:39;19.97;;;8.23;;
1682;SDS011;13252;53.596;10.060;2023-01-10T03:19:10;20.13;;;7.87;;
1682;SDS011;13252;53.596;10.060;2023-01-10T03:21:39;22.93;;;8.30;;
1682;SDS011;13252;53.596;10.060;2023-01-10T03:24:10;25.43;;;8.80;;
1682;SDS011;13252;53.596;10.060;2023-01-10T03:26:41;19.70;;;8.63;;
1682;SDS011;13252;53.596;10.060;2023-01-10T03:29:16;19.53;;;8.13;;
1682;SDS011;13252;53.596;10.060;2023-01-10T03:31:49;18.13;;;7.60;;
1682;SDS011;13252;53.596;10.060;2023-01-10T03:34:20;18.10;;;7.50;;
1682;SDS011;13252;53.596;10.060;2023-01-10T03:36:49;12.00;;;8.03;;
1682;SDS011;13252;53.596;10.060;2023-01-10T03:39:19;15.63;;;7.17;;
1682;SDS011;13252;53.596;10.060;2023-01-10T03:41:53;14.20;;;7.30;;
1682;SDS011;13252;53.596;10.060;2023-01-10T03:44:26;24.23;;;7.10;;
1682;SDS011;13252;53.596;10.060;2023-01-10T03:47:10;17.23;;;6.93;;
1682;SDS011;13252;53.596;10.060;2023-01-10T03:49:42;13.63;;;7.10;;
1682;SDS011;13252;53.596;10.060;2023-01-10T03:52:14;35.10;;;22.67;;
1682;SDS011;13252;53.596;10.060;2023-01-10T03:54:44;11.93;;;6.30;;
1682;SDS011;13252;53.596;10.060;2023-01-10T03:57:16;26.60;;;7.30;;
1682;SDS011;13252;53.596;10.060;2023-01-10T03:59:45;17.30;;;7.67;;
1682;SDS011;13252;53.596;10.060;2023-01-10T04:02:13;16.57;;;7.60;;
1682;SDS011;13252;53.596;10.060;2023-01-10T04:04:42;13.20;;;6.20;;
1682;SDS011;13252;53.596;10.060;2023-01-10T04:07:10;20.00;;;8.33;;
1682;SDS011;13252;53.596;10.060;2023-01-10T04:09:37;13.53;;;6.83;;
1682;SDS011;13252;53.596;10.060;2023-01-10T04:12:05;12.60;;;6.13;;
1682;SDS011;13252;53.596;10.060;2023-01-10T04:14:32;16.07;;;6.20;;
1682;SDS011;13252;53.596;10.060;2023-01-10T04:17:00;14.80;;;6.70;;
1682;SDS011;13252;53.596;10.060;2023-01-10T04:19:27;21.73;;;7.87;;
1682;SDS011;13252;53.596;10.060;2023-01-10T04:21:56;17.60;;;7.10;;
1682;SDS011;13252;53.596;10.060;2023-01-10T04:24:24;20.27;;;6.33;;
1682;SDS011;13252;53.596;10.060;2023-01-10T04:26:51;15.13;;;6.70;;
1682;SDS011;13252;53.596;10.060;2023-01-10T04:29:19;12.83;;;6.27;;
1682;SDS011;13252;53.596;10.060;2023-01-10T04:31:49;14.23;;;7.20;;
1682;SDS011;13252;53.596;10.060;2023-01-10T04:34:17;15.43;;;6.60;;
1682;SDS011;13252;53.596;10.060;2023-01-10T04:36:45;15.77;;;7.23;;
1682;SDS011;13252;53.596;10.060;2023-01-10T04:39:17;15.17;;;6.30;;
1682;SDS011;13252;53.596;10.060;2023-01-10T04:41:44;13.80;;;6.20;;
1682;SDS011;13252;53.596;10.060;2023-01-10T04:44:12;21.37;;;6.90;;
1682;SDS011;13252;53.596;10.060;2023-01-10T04:46:39;20.20;;;6.30;;
1682;SDS011;13252;53.596;10.060;2023-01-10T04:49:07;18.93;;;6.40;;
1682;SDS011;13252;53.596;10.060;2023-01-10T04:51:35;18.87;;;6.90;;
1682;SDS011;13252;53.596;10.060;2023-01-10T04:54:03;18.47;;;7.10;;
1682;SDS011;13252;53.596;10.060;2023-01-10T04:56:32;19.60;;;7.27;;
1682;SDS011;13252;53.596;10.060;2023-01-10T04:59:00;23.50;;;6.77;;
1682;SDS011;13252;53.596;10.060;2023-01-10T05:01:27;15.30;;;6.10;;
1682;SDS011;13252;53.596;10.060;2023-01-10T05:03:55;18.77;;;6.67;;
1682;SDS011;13252;53.596;10.060;2023-01-10T05:06:23;17.50;;;5.40;;
1682;SDS011;13252;53.596;10.060;2023-01-10T05:08:50;23.53;;;6.60;;
1682;SDS011;13252;53.596;10.060;2023-01-10T05:11:18;17.93;;;5.93;;
1682;SDS011;13252;53.596;10.060;2023-01-10T05:13:47;19.37;;;7.10;;
1682;SDS011;13252;53.596;10.060;2023-01-10T05:16:14;15.67;;;6.97;;
1682;SDS011;13252;53.596;10.060;2023-01-10T05:18:43;31.53;;;8.33;;
1682;SDS011;13252;53.596;10.060;2023-01-10T05:21:11;22.57;;;6.80;;
1682;SDS011;13252;53.596;10.060;2023-01-10T05:23:39;16.60;;;5.00;;
1682;SDS011;13252;53.596;10.060;2023-01-10T05:26:08;20.23;;;7.50;;
1682;SDS011;13252;53.596;10.060;2023-01-10T05:28:36;17.83;;;6.80;;
1682;SDS011;13252;53.596;10.060;2023-01-10T05:31:05;19.67;;;6.47;;
1682;SDS011;13252;53.596;10.060;2023-01-10T05:33:33;19.73;;;8.50;;
1682;SDS011;13252;53.596;10.060;2023-01-10T05:36:01;13.43;;;6.00;;
1682;SDS011;13252;53.596;10.060;2023-01-10T05:38:29;19.70;;;7.57;;
1682;SDS011;13252;53.596;10.060;2023-01-10T05:40:56;18.03;;;5.93;;
1682;SDS011;13252;53.596;10.060;2023-01-10T05:43:24;15.83;;;6.27;;
1682;SDS011;13252;53.596;10.060;2023-01-10T05:45:52;18.43;;;6.43;;
1682;SDS011;13252;53.596;10.060;2023-01-10T05:48:21;14.03;;;5.90;;
1682;SDS011;13252;53.596;10.060;2023-01-10T05:50:49;14.60;;;4.83;;
1682;SDS011;13252;53.596;10.060;2023-01-10T05:53:20;18.03;;;6.23;;
1682;SDS011;13252;53.596;10.060;2023-01-10T05:55:51;18.03;;;6.27;;
1682;SDS011;13252;53.596;10.060;2023-01-10T05:58:20;16.97;;;5.93;;
1682;SDS011;13252;53.596;10.060;2023-01-10T06:00:48;17.73;;;6.50;;
1682;SDS011;13252;53.596;10.060;2023-01-10T06:03:16;23.00;;;5.33;;
1682;SDS011;13252;53.596;10.060;2023-01-10T06:05:47;21.57;;;6.97;;
1682;SDS011;13252;53.596;10.060;2023-01-10T06:08:14;14.37;;;4.50;;
1682;SDS011;13252;53.596;10.060;2023-01-10T06:10:42;32.33;;;5.70;;
1682;SDS011;13252;53.596;10.060;2023-01-10T06:13:10;16.27;;;4.93;;
1682;SDS011;13252;53.596;10.060;2023-01-10T06:15:38;23.03;;;5.57;;
1682;SDS011;13252;53.596;10.060;2023-01-10T06:18:06;21.47;;;4.20;;
1682;SDS011;13252;53.596;10.060;2023-01-10T06:20:37;17.23;;;5.70;;
1682;SDS011;13252;53.596;10.060;2023-01-10T06:23:06;14.20;;;4.30;;
1682;SDS011;13252;53.596;10.060;2023-01-10T06:25:34;14.87;;;4.90;;
1682;SDS011;13252;53.596;10.060;2023-01-10T06:28:05;19.13;;;5.23;;
1682;SDS011;13252;53.596;10.060;2023-01-10T06:30:33;19.00;;;5.10;;
1682;SDS011;13252;53.596;10.060;2023-01-10T06:33:01;17.70;;;5.10;;
1682;SDS011;13252;53.596;10.060;2023-01-10T06:35:29;15.43;;;3.80;;
1682;SDS011;13252;53.596;10.060;2023-01-10T06:37:57;18.33;;;4.50;;
1682;SDS011;13252;53.596;10.060;2023-01-10T06:40:26;26.60;;;4.67;;
1682;SDS011;13252;53.596;10.060;2023-01-10T06:42:55;17.47;;;4.43;;
1682;SDS011;13252;53.596;10.060;2023-01-10T06:45:22;13.73;;;5.80;;
1682;SDS011;13252;53.596;10.060;2023-01-10T06:47:50;13.33;;;4.20;;
1682;SDS011;13252;53.596;10.060;2023-01-10T06:50:18;20.43;;;5.03;;
1682;SDS011;13252;53.596;10.060;2023-01-10T06:52:45;17.03;;;4.30;;
1682;SDS011;13252;53.596;10.060;2023-01-10T06:55:13;16.97;;;5.17;;
1682;SDS011;13252;53.596;10.060;2023-01-10T06:57:42;12.70;;;4.13;;
1682;SDS011;13252;53.596;10.060;2023-01-10T07:00:10;14.27;;;3.90;;
1682;SDS011;13252;53.596;10.060;2023-01-10T07:02:39;24.67;;;4.77;;
1682;SDS011;13252;53.596;10.060;2023-01-10T07:05:07;21.77;;;4.50;;
1682;SDS011;13252;53.596;10.060;2023-01-10T07:07:36;26.63;;;4.80;;
1682;SDS011;13252;53.596;10.060;2023-01-10T07:10:04;10.37;;;4.37;;
1682;SDS011;13252;53.596;10.060;2023-01-10T07:12:33;16.47;;;4.17;;
1682;SDS011;13252;53.596;10.060;2023-01-10T07:15:02;13.50;;;3.97;;
1682;SDS011;13252;53.596;10.060;2023-01-10T07:17:30;13.30;;;4.13;;
1682;SDS011;13252;53.596;10.060;2023-01-10T07:19:57;17.77;;;5.17;;
1682;SDS011;13252;53.596;10.060;2023-01-10T07:22:25;17.13;;;4.90;;
1682;SDS011;13252;53.596;10.060;2023-01-10T07:24:52;13.37;;;4.50;;
1682;SDS011;13252;53.596;10.060;2023-01-10T07:27:20;16.27;;;4.83;;
1682;SDS011;13252;53.596;10.060;2023-01-10T07:29:48;25.00;;;6.83;;
1682;SDS011;13252;53.596;10.060;2023-01-10T07:32:17;17.80;;;6.27;;
1682;SDS011;13252;53.596;10.060;2023-01-10T07:34:45;18.77;;;5.93;;
1682;SDS011;13252;53.596;10.060;2023-01-10T07:37:12;21.27;;;6.93;;
1682;SDS011;13252;53.596;10.060;2023-01-10T07:39:40;16.30;;;5.13;;
1682;SDS011;13252;53.596;10.060;2023-01-10T07:42:08;19.50;;;5.70;;
1682;SDS011;13252;53.596;10.060;2023-01-10T07:44:36;24.10;;;6.27;;
1682;SDS011;13252;53.596;10.060;2023-01-10T07:47:04;19.33;;;5.90;;
1682;SDS011;13252;53.596;10.060;2023-01-10T07:49:33;18.87;;;5.50;;
1682;SDS011;13252;53.596;10.060;2023-01-10T07:52:01;22.60;;;5.10;;
1682;SDS011;13252;53.596;10.060;2023-01-10T07:54:28;10.97;;;4.80;;
1682;SDS011;13252;53.596;10.060;2023-01-10T07:56:56;25.53;;;6.03;;
1682;SDS011;13252;53.596;10.060;2023-01-10T07:59:24;30.83;;;8.40;;
1682;SDS011;13252;53.596;10.060;2023-01-10T08:01:51;23.40;;;7.67;;
1682;SDS011;13252;53.596;10.060;2023-01-10T08:04:19;28.47;;;6.37;;
1682;SDS011;13252;53.596;10.060;2023-01-10T08:06:48;22.90;;;6.87;;
1682;SDS011;13252;53.596;10.060;2023-01-10T08:09:16;22.43;;;6.40;;
1682;SDS011;13252;53.596;10.060;2023-01-10T08:11:45;26.80;;;6.00;;
1682;SDS011;13252;53.596;10.060;2023-01-10T08:14:15;24.27;;;6.30;;
1682;SDS011;13252;53.596;10.060;2023-01-10T08:16:43;28.47;;;6.00;;
1682;SDS011;13252;53.596;10.060;2023-01-10T08:19:11;18.13;;;6.00;;
1682;SDS011;13252;53.596;10.060;2023-01-10T08:21:43;20.23;;;6.50;;
1682;SDS011;13252;53.596;10.060;2023-01-10T08:24:13;17.70;;;6.17;;
1682;SDS011;13252;53.596;10.060;2023-01-10T08:26:41;18.10;;;6.00;;
1682;SDS011;13252;53.596;10.060;2023-01-10T08:29:08;16.07;;;6.27;;
1682;SDS011;13252;53.596;10.060;2023-01-10T08:31:36;20.57;;;6.53;;
1682;SDS011;13252;53.596;10.060;2023-01-10T08:34:05;24.87;;;6.30;;
1682;SDS011;13252;53.596;10.060;2023-01-10T08:36:32;15.67;;;6.67;;
1682;SDS011;13252;53.596;10.060;2023-01-10T08:39:00;25.10;;;6.17;;
1682;SDS011;13252;53.596;10.060;2023-01-10T08:41:30;15.10;;;6.80;;
1682;SDS011;13252;53.596;10.060;2023-01-10T08:43:58;20.73;;;6.50;;
1682;SDS011;13252;53.596;10.060;2023-01-10T08:46:26;19.87;;;7.13;;
1682;SDS011;13252;53.596;10.060;2023-01-10T08:48:53;17.37;;;6.63;;
1682;SDS011;13252;53.596;10.060;2023-01-10T08:51:21;26.27;;;7.53;;
1682;SDS011;13252;53.596;10.060;2023-01-10T08:53:52;15.20;;;7.17;;
1682;SDS011;13252;53.596;10.060;2023-01-10T08:56:22;24.67;;;8.13;;
1682;SDS011;13252;53.596;10.060;2023-01-10T08:58:54;23.43;;;8.87;;
1682;SDS011;13252;53.596;10.060;2023-01-10T09:01:22;26.80;;;8.40;;
1682;SDS011;13252;53.596;10.060;2023-01-10T09:03:54;29.60;;;9.10;;
1682;SDS011;13252;53.596;10.060;2023-01-10T09:06:22;23.37;;;7.80;;
1682;SDS011;13252;53.596;10.060;2023-01-10T09:08:52;31.23;;;9.50;;
1682;SDS011;13252;53.596;10.060;2023-01-10T09:11:19;20.13;;;8.30;;
1682;SDS011;13252;53.596;10.060;2023-01-10T09:13:47;23.67;;;8.23;;
1682;SDS011;13252;53.596;10.060;2023-01-10T09:16:28;21.70;;;9.70;;
1682;SDS011;13252;53.596;10.060;2023-01-10T09:19:15;18.80;;;8.20;;
1682;SDS011;13252;53.596;10.060;2023-01-10T09:21:43;18.20;;;9.70;;
1682;SDS011;13252;53.596;10.060;2023-01-10T09:24:11;36.80;;;9.13;;
1682;SDS011;13252;53.596;10.060;2023-01-10T09:26:39;21.27;;;10.43;;
1682;SDS011;13252;53.596;10.060;2023-01-10T09:29:07;24.93;;;10.10;;
1682;SDS011;13252;53.596;10.060;2023-01-10T09:31:36;22.13;;;9.63;;
1682;SDS011;13252;53.596;10.060;2023-01-10T09:34:04;26.10;;;11.50;;
1682;SDS011;13252;53.596;10.060;2023-01-10T09:36:33;23.83;;;10.17;;
1682;SDS011;13252;53.596;10.060;2023-01-10T09:39:01;24.83;;;9.77;;
1682;SDS011;13252;53.596;10.060;2023-01-10T09:41:38;24.00;;;10.07;;
1682;SDS011;13252;53.596;10.060;2023-01-10T09:44:18;17.10;;;9.33;;
1682;SDS011;13252;53.596;10.060;2023-01-10T09:46:51;19.27;;;8.63;;
1682;SDS011;13252;53.596;10.060;2023-01-10T09:49:34;25.70;;;10.77;;
1682;SDS011;13252;53.596;10.060;2023-01-10T09:52:08;21.93;;;9.67;;
1682;SDS011;13252;53.596;10.060;2023-01-10T09:54:43;23.23;;;9.07;;
1682;SDS011;13252;53.596;10.060;2023-01-10T09:57:12;17.70;;;8.67;;
1682;SDS011;13252;53.596;10.060;2023-01-10T09:59:42;21.57;;;9.00;;
1682;SDS011;13252;53.596;10.060;2023-01-10T10:02:18;22.17;;;8.17;;
1682;SDS011;13252;53.596;10.060;2023-01-10T10:04:55;26.50;;;9.63;;
1682;SDS011;13252;53.596;10.060;2023-01-10T10:07:28;27.63;;;9.70;;
1682;SDS011;13252;53.596;10.060;2023-01-10T10:09:56;21.23;;;8.73;;
1682;SDS011;13252;53.596;10.060;2023-01-10T10:12:25;24.40;;;8.87;;
1682;SDS011;13252;53.596;10.060;2023-01-10T10:15:02;23.40;;;9.10;;
1682;SDS011;13252;53.596;10.060;2023-01-10T10:17:39;16.30;;;7.67;;
1682;SDS011;13252;53.596;10.060;2023-01-10T10:20:15;23.20;;;10.27;;
1682;SDS011;13252;53.596;10.060;2023-01-10T10:22:52;24.80;;;8.90;;
1682;SDS011;13252;53.596;10.060;2023-01-10T10:25:36;26.80;;;10.70;;
1682;SDS011;13252;53.596;10.060;2023-01-10T10:28:26;23.77;;;9.50;;
1682;SDS011;13252;53.596;10.060;2023-01-10T10:31:25;23.77;;;9.03;;
1682;SDS011;13252;53.596;10.060;2023-01-10T10:34:22;23.50;;;9.17;;
1682;SDS011;13252;53.596;10.060;2023-01-10T10:38:02;20.13;;;9.80;;
1682;SDS011;13252;53.596;10.060;2023-01-10T10:41:36;20.67;;;8.30;;
1682;SDS011;13252;53.596;10.060;2023-01-10T10:48:45;28.03;;;10.03;;
1682;SDS011;13252;53.596;10.060;2023-01-10T10:51:24;25.67;;;12.33;;
1682;SDS011;13252;53.596;10.060;2023-01-10T10:54:18;29.50;;;12.63;;
1682;SDS011;13252;53.596;10.060;2023-01-10T10:56:51;23.43;;;12.10;;
1682;SDS011;13252;53.596;10.060;2023-01-10T11:00:09;22.80;;;11.87;;
1682;SDS011;13252;53.596;10.060;2023-01-10T11:04:23;25.13;;;10.33;;
1682;SDS011;13252;53.596;10.060;2023-01-10T11:06:53;20.40;;;10.70;;
1682;SDS011;13252;53.596;10.060;2023-01-10T11:09:21;26.77;;;11.50;;
1682;SDS011;13252;53.596;10.060;2023-01-10T11:11:53;26.00;;;11.10;;
1682;SDS011;13252;53.596;10.060;2023-01-10T11:14:41;23.10;;;11.50;;
1682;SDS011;13252;53.596;10.060;2023-01-10T11:17:20;21.17;;;10.97;;
1682;SDS011;13252;53.596;10.060;2023-01-10T11:19:58;16.00;;;9.77;;
1682;SDS011;13252;53.596;10.060;2023-01-10T11:22:31;19.10;;;8.93;;
1682;SDS011;13252;53.596;10.060;2023-01-10T11:25:03;15.60;;;9.20;;
1682;SDS011;13252;53.596;10.060;2023-01-10T11:27:32;17.03;;;10.50;;
1682;SDS011;13252;53.596;10.060;2023-01-10T11:30:15;14.50;;;9.63;;
1682;SDS011;13252;53.596;10.060;2023-01-10T11:32:47;20.77;;;10.73;;
1682;SDS011;13252;53.596;10.060;2023-01-10T11:35:20;22.00;;;10.77;;
1682;SDS011;13252;53.596;10.060;2023-01-10T11:37:58;14.27;;;7.93;;
1682;SDS011;13252;53.596;10.060;2023-01-10T11:40:27;27.87;;;10.73;;
1682;SDS011;13252;53.596;10.060;2023-01-10T11:42:55;22.90;;;10.30;;
1682;SDS011;13252;53.596;10.060;2023-01-10T11:45:26;18.83;;;10.50;;
1682;SDS011;13252;53.596;10.060;2023-01-10T11:47:58;21.43;;;10.63;;
1682;SDS011;13252;53.596;10.060;2023-01-10T11:50:33;26.83;;;9.93;;
1682;SDS011;13252;53.596;10.060;2023-01-10T11:53:03;22.77;;;9.70;;
1682;SDS011;13252;53.596;10.060;2023-01-10T11:55:32;25.00;;;12.40;;
1682;SDS011;13252;53.596;10.060;2023-01-10T11:58:03;25.93;;;10.63;;
1682;SDS011;13252;53.596;10.060;2023-01-10T12:00:33;20.70;;;9.77;;
1682;SDS011;13252;53.596;10.060;2023-01-10T12:03:13;22.10;;;9.67;;
1682;SDS011;13252;53.596;10.060;2023-01-10T12:05:48;22.43;;;10.07;;
1682;SDS011;13252;53.596;10.060;2023-01-10T12:08:23;21.53;;;10.10;;
1682;SDS011;13252;53.596;10.060;2023-01-10T12:10:59;26.60;;;10.50;;
1682;SDS011;13252;53.596;10.060;2023-01-10T12:13:29;22.37;;;9.73;;
1682;SDS011;13252;53.596;10.060;2023-01-10T12:16:17;21.77;;;9.23;;
1682;SDS011;13252;53.596;10.060;2023-01-10T12:18:47;32.00;;;11.50;;
1682;SDS011;13252;53.596;10.060;2023-01-10T12:21:18;26.50;;;11.33;;
1682;SDS011;13252;53.596;10.060;2023-01-10T12:23:49;21.00;;;11.07;;
1682;SDS011;13252;53.596;10.060;2023-01-10T12:26:18;24.47;;;10.40;;
1682;SDS011;13252;53.596;10.060;2023-01-10T12:28:47;20.10;;;10.33;;
1682;SDS011;13252;53.596;10.060;2023-01-10T12:31:18;28.03;;;11.53;;
1682;SDS011;13252;53.596;10.060;2023-01-10T12:33:50;26.43;;;9.90;;
1682;SDS011;13252;53.596;10.060;2023-01-10T12:36:27;27.27;;;10.37;;
1682;SDS011;13252;53.596;10.060;2023-01-10T12:39:01;20.00;;;10.17;;
1682;SDS011;13252;53.596;10.060;2023-01-10T12:41:41;30.57;;;10.80;;
1682;SDS011;13252;53.596;10.060;2023-01-10T12:44:32;22.23;;;9.87;;
1682;SDS011;13252;53.596;10.060;2023-01-10T12:47:04;19.77;;;9.60;;
1682;SDS011;13252;53.596;10.060;2023-01-10T12:49:41;28.17;;;10.80;;
1682;SDS011;13252;53.596;10.060;2023-01-10T12:52:12;24.27;;;12.07;;
1682;SDS011;13252;53.596;10.060;2023-01-10T12:54:43;26.47;;;10.13;;
1682;SDS011;13252;53.596;10.060;2023-01-10T12:57:16;21.87;;;12.20;;
1682;SDS011;13252;53.596;10.060;2023-01-10T12:59:49;18.13;;;10.40;;
1682;SDS011;13252;53.596;10.060;2023-01-10T13:02:19;21.20;;;11.37;;
1682;SDS011;13252;53.596;10.060;2023-01-10T13:04:50;20.30;;;9.53;;
1682;SDS011;13252;53.596;10.060;2023-01-10T13:07:19;22.00;;;10.70;;
1682;SDS011;13252;53.596;10.060;2023-01-10T13:09:49;30.90;;;10.53;;
1682;SDS011;13252;53.596;10.060;2023-01-10T13:12:20;26.87;;;11.00;;
1682;SDS011;13252;53.596;10.060;2023-01-10T13:14:50;28.87;;;10.00;;
1682;SDS011;13252;53.596;10.060;2023-01-10T13:17:26;25.30;;;11.33;;
1682;SDS011;13252;53.596;10.060;2023-01-10T13:22:54;21.93;;;11.40;;
1682;SDS011;13252;53.596;10.060;2023-01-10T13:25:25;27.23;;;11.57;;
1682;SDS011;13252;53.596;10.060;2023-01-10T13:27:56;23.03;;;10.97;;
1682;SDS011;13252;53.596;10.060;2023-01-10T13:30:26;19.67;;;10.33;;
1682;SDS011;13252;53.596;10.060;2023-01-10T13:32:57;26.17;;;9.90;;
1682;SDS011;13252;53.596;10.060;2023-01-10T13:35:34;27.80;;;10.57;;
1682;SDS011;13252;53.596;10.060;2023-01-10T13:38:04;21.23;;;10.67;;
1682;SDS011;13252;53.596;10.060;2023-01-10T13:40:33;24.40;;;11.93;;
1682;SDS011;13252;53.596;10.060;2023-01-10T13:55:23;22.73;;;10.03;;
1682;SDS011;13252;53.596;10.060;2023-01-10T13:57:56;18.80;;;10.23;;
1682;SDS011;13252;53.596;10.060;2023-01-10T14:00:28;24.90;;;10.77;;
1682;SDS011;13252;53.596;10.060;2023-01-10T14:03:40;27.03;;;10.53;;
1682;SDS011;13252;53.596;10.060;2023-01-10T14:06:15;23.23;;;9.23;;
1682;SDS011;13252;53.596;10.060;2023-01-10T14:08:49;21.93;;;9.63;;
1682;SDS011;13252;53.596;10.060;2023-01-10T14:11:19;27.30;;;9.33;;
1682;SDS011;13252;53.596;10.060;2023-01-10T14:13:50;16.20;;;9.30;;
1682;SDS011;13252;53.596;10.060;2023-01-10T14:16:27;18.27;;;9.23;;
1682;SDS011;13252;53.596;10.060;2023-01-10T14:18:55;21.63;;;8.53;;
1682;SDS011;13252;53.596;10.060;2023-01-10T14:21:24;27.60;;;8.90;;
1682;SDS011;13252;53.596;10.060;2023-01-10T14:23:52;27.40;;;7.77;;
1682;SDS011;13252;53.596;10.060;2023-01-10T14:26:26;16.20;;;7.57;;
1682;SDS011;13252;53.596;10.060;2023-01-10T14:29:00;19.07;;;7.83;;
1682;SDS011;13252;53.596;10.060;2023-01-10T14:31:28;17.20;;;9.00;;
1682;SDS011;13252;53.596;10.060;2023-01-10T14:33:57;17.33;;;6.53;;
1682;SDS011;13252;53.596;10.060;2023-01-10T14:36:26;18.80;;;6.80;;
1682;SDS011;13252;53.596;10.060;2023-01-10T14:38:55;16.43;;;7.40;;
1682;SDS011;13252;53.596;10.060;2023-01-10T14:41:28;16.90;;;7.53;;
1682;SDS011;13252;53.596;10.060;2023-01-10T14:44:00;20.97;;;6.30;;
1682;SDS011;13252;53.596;10.060;2023-01-10T14:46:31;23.30;;;8.00;;
1682;SDS011;13252;53.596;10.060;2023-01-10T14:49:17;24.00;;;6.40;;
1682;SDS011;13252;53.596;10.060;2023-01-10T14:51:47;26.27;;;7.40;;
1682;SDS011;13252;53.596;10.060;2023-01-10T14:54:16;17.90;;;5.70;;
1682;SDS011;13252;53.596;10.060;2023-01-10T14:56:46;21.73;;;6.57;;
1682;SDS011;13252;53.596;10.060;2023-01-10T14:59:17;15.33;;;5.43;;
1682;SDS011;13252;53.596;10.060;2023-01-10T15:01:48;21.60;;;7.23;;
1682;SDS011;13252;53.596;10.060;2023-01-10T15:04:17;21.23;;;6.63;;
1682;SDS011;13252;53.596;10.060;2023-01-10T15:06:49;21.30;;;6.00;;
1682;SDS011;13252;53.596;10.060;2023-01-10T15:09:18;16.37;;;6.43;;
1682;SDS011;13252;53.596;10.060;2023-01-10T15:11:46;13.97;;;5.07;;
1682;SDS011;13252;53.596;10.060;2023-01-10T15:14:15;10.87;;;5.83;;
1682;SDS011;13252;53.596;10.060;2023-01-10T15:16:45;15.33;;;5.97;;
1682;SDS011;13252;53.596;10.060;2023-01-10T15:19:15;17.70;;;5.90;;
1682;SDS011;13252;53.596;10.060;2023-01-10T15:21:44;14.30;;;6.50;;